Time;durP1;ratioP1;P1;durP2;ratioP2;P2;SDS_P1;SDS_P2;PMS_P1;PMS_P2;Temp;Humidity;BMP_temperature;BMP_pressure;BME280_temperature;BME280_humidity;BME280_pressure;Samples;Min_cycle;Max_cycle;Signal;HPM_P1;HPM_P2
2022/02/17 00:00:40;;;;;;;0.47;0.47;;;12.70;99.90;;;;;;6244798;23;20467;-81
2022/02/17 00:03:08;;;;;;;0.47;0.47;;;12.90;99.90;;;;;;6245057;23;20016;-80
2022/02/17 00:05:38;;;;;;;0.20;0.20;;;12.90;99.90;;;;;;6242929;23;20098;-80
2022/02/17 00:08:04;;;;;;;0.20;0.20;;;12.90;99.90;;;;;;6243435;23;20024;-80
2022/02/17 00:10:34;;;;;;;0.43;0.28;;;12.90;99.90;;;;;;6243158;23;20020;-80
2022/02/17 00:13:00;;;;;;;0.32;0.22;;;12.90;99.90;;;;;;6243317;23;20435;-81
2022/02/17 00:15:27;;;;;;;0.38;0.30;;;12.90;99.90;;;;;;6242921;23;20478;-81
2022/02/17 00:17:54;;;;;;;0.40;0.40;;;12.90;99.90;;;;;;6243126;23;20035;-80
2022/02/17 00:20:22;;;;;;;0.75;0.40;;;13.00;99.90;;;;;;6243107;23;20377;-80
2022/02/17 00:22:53;;;;;;;1.65;0.30;;;12.90;99.90;;;;;;6243349;23;20032;-81
2022/02/17 00:25:20;;;;;;;0.25;0.25;;;12.70;99.90;;;;;;6243305;23;20024;-81
2022/02/17 00:27:46;;;;;;;0.30;0.30;;;12.60;99.90;;;;;;6243402;23;20055;-81
2022/02/17 00:30:12;;;;;;;3.72;0.30;;;12.50;99.90;;;;;;6243203;23;20032;-81
2022/02/17 00:32:39;;;;;;;0.30;0.30;;;12.50;99.90;;;;;;6243614;23;20074;-81
2022/02/17 00:35:07;;;;;;;0.60;0.28;;;12.40;99.90;;;;;;6243358;23;20099;-81
2022/02/17 00:37:33;;;;;;;0.40;0.20;;;12.10;99.90;;;;;;6243427;23;20016;-80
2022/02/17 00:40:00;;;;;;;0.30;0.30;;;11.90;99.90;;;;;;6236917;22;20021;-79
2022/02/17 00:42:26;;;;;;;0.22;0.22;;;11.90;99.90;;;;;;6243209;22;20504;-80
2022/02/17 00:44:53;;;;;;;1.40;0.17;;;12.00;99.90;;;;;;6243569;23;20024;-80
2022/02/17 00:47:20;;;;;;;0.20;0.20;;;12.10;99.90;;;;;;6243750;23;20103;-81
2022/02/17 00:49:48;;;;;;;0.40;0.30;;;12.30;99.90;;;;;;6243064;23;20325;-80
2022/02/17 00:52:14;;;;;;;0.20;0.20;;;12.50;99.90;;;;;;6243284;23;20035;-81
2022/02/17 00:54:41;;;;;;;0.08;0.08;;;12.60;99.90;;;;;;6243348;23;20028;-80
2022/02/17 00:59:52;;;;;;;0.45;0.20;;;12.10;99.90;;;;;;6241203;23;20008;-79
2022/02/17 01:05:40;;;;;;;0.28;0.28;;;11.60;99.90;;;;;;6197455;23;20027;-80
2022/02/17 01:08:06;;;;;;;3.92;0.20;;;11.50;99.90;;;;;;6243012;23;20024;-79
2022/02/17 01:10:34;;;;;;;0.20;0.20;;;11.30;99.90;;;;;;6242418;23;20051;-78
2022/02/17 01:13:01;;;;;;;0.10;0.10;;;11.20;99.90;;;;;;6242823;23;20024;-78
2022/02/17 01:15:27;;;;;;;0.85;0.30;;;11.20;99.90;;;;;;6241995;23;20023;-79
2022/02/17 01:17:53;;;;;;;0.25;0.20;;;11.20;99.90;;;;;;6242264;23;20091;-79
2022/02/17 01:20:19;;;;;;;0.30;0.30;;;11.10;99.90;;;;;;6242364;23;20031;-79
2022/02/17 01:22:45;;;;;;;2.13;1.10;;;11.10;99.90;;;;;;6242952;23;20467;-80
2022/02/17 01:25:13;;;;;;;4.55;1.10;;;10.00;99.90;;;;;;6236300;23;20102;-81
2022/02/17 01:27:42;;;;;;;1.58;0.73;;;8.70;99.90;;;;;;6242572;23;20031;-80
2022/02/17 01:30:10;;;;;;;2.65;0.80;;;8.30;99.90;;;;;;6242019;23;20133;-80
2022/02/17 01:32:36;;;;;;;1.13;0.83;;;8.10;99.90;;;;;;6242517;23;20032;-79
2022/02/17 01:35:02;;;;;;;1.13;0.60;;;8.10;99.90;;;;;;6242089;23;20031;-79
2022/02/17 01:37:28;;;;;;;0.30;0.27;;;8.10;99.90;;;;;;6243122;23;20027;-79
2022/02/17 01:40:04;;;;;;;1.57;0.50;;;8.10;99.90;;;;;;6242149;23;20027;-81
2022/02/17 01:42:30;;;;;;;1.23;0.93;;;8.10;99.90;;;;;;6242739;23;20020;-80
2022/02/17 01:44:57;;;;;;;0.32;0.30;;;8.10;99.90;;;;;;6242510;23;20020;-79
2022/02/17 01:47:23;;;;;;;0.33;0.30;;;8.00;99.90;;;;;;6242242;23;20024;-80
2022/02/17 01:49:49;;;;;;;2.17;0.40;;;7.90;99.90;;;;;;6242298;23;20386;-79
2022/02/17 01:52:16;;;;;;;0.60;0.47;;;7.80;99.90;;;;;;6242431;23;20024;-80
2022/02/17 01:54:45;;;;;;;0.60;0.60;;;7.80;99.90;;;;;;6242342;23;20024;-80
2022/02/17 01:57:15;;;;;;;1.80;0.40;;;7.70;99.90;;;;;;6239013;23;20027;-80
2022/02/17 01:59:41;;;;;;;1.50;0.40;;;7.70;99.90;;;;;;6242483;23;20028;-79
2022/02/17 02:02:09;;;;;;;0.70;0.30;;;7.70;99.90;;;;;;6241923;23;20051;-80
2022/02/17 02:04:35;;;;;;;1.60;0.37;;;7.80;99.90;;;;;;6241761;23;20020;-79
2022/02/17 02:07:01;;;;;;;2.33;0.47;;;7.80;99.90;;;;;;6241809;23;20090;-80
2022/02/17 02:09:27;;;;;;;1.23;0.23;;;7.80;99.90;;;;;;6242126;23;20063;-79
2022/02/17 02:11:53;;;;;;;1.50;1.37;;;7.90;99.90;;;;;;6242485;23;20031;-80
2022/02/17 02:14:19;;;;;;;0.40;0.40;;;7.90;99.90;;;;;;6242692;23;20048;-80
2022/02/17 02:16:46;;;;;;;1.93;1.03;;;7.90;99.90;;;;;;6230159;23;20059;-80
2022/02/17 02:19:13;;;;;;;1.40;0.47;;;7.90;99.90;;;;;;6242166;23;20332;-81
2022/02/17 02:21:40;;;;;;;5.43;0.53;;;7.90;99.90;;;;;;6241839;23;20031;-80
2022/02/17 02:24:07;;;;;;;5.43;0.63;;;8.00;99.90;;;;;;6242568;23;20024;-82
2022/02/17 02:26:33;;;;;;;0.93;0.50;;;8.00;99.90;;;;;;6242779;23;20336;-81
2022/02/17 02:29:00;;;;;;;2.00;0.40;;;8.00;99.90;;;;;;6242568;23;20028;-82
2022/02/17 02:31:26;;;;;;;5.83;0.73;;;8.00;99.90;;;;;;6215973;23;20023;-82
2022/02/17 02:33:52;;;;;;;1.27;0.43;;;7.90;99.90;;;;;;6242278;23;20024;-82
2022/02/17 02:36:18;;;;;;;3.70;0.60;;;7.90;99.90;;;;;;6236429;23;20024;-82
2022/02/17 02:38:45;;;;;;;5.17;2.20;;;7.90;99.90;;;;;;6243413;23;20039;-81
2022/02/17 02:41:11;;;;;;;6.17;0.70;;;7.90;99.90;;;;;;6243051;23;20527;-83
2022/02/17 02:43:48;;;;;;;3.37;0.47;;;7.80;99.90;;;;;;6243547;23;20047;-83
2022/02/17 02:46:14;;;;;;;6.27;1.13;;;7.80;99.90;;;;;;6243324;23;20028;-83
2022/02/17 02:48:40;;;;;;;2.50;0.80;;;7.80;99.90;;;;;;6243294;23;20035;-84
2022/02/17 02:51:06;;;;;;;3.40;1.87;;;7.80;99.90;;;;;;6243184;23;20027;-83
2022/02/17 02:53:32;;;;;;;5.33;1.20;;;7.90;99.90;;;;;;6216067;23;20099;-84
2022/02/17 02:56:00;;;;;;;4.37;0.70;;;7.90;99.90;;;;;;6242939;23;20447;-84
2022/02/17 02:58:26;;;;;;;3.40;0.50;;;7.90;99.90;;;;;;6239992;23;20043;-83
2022/02/17 03:00:52;;;;;;;4.90;0.87;;;7.90;99.90;;;;;;6243124;23;20074;-83
2022/02/17 03:03:18;;;;;;;3.73;0.67;;;8.00;99.90;;;;;;6242649;23;20032;-80
2022/02/17 03:05:45;;;;;;;1.45;0.80;;;8.00;99.90;;;;;;6242932;23;20027;-83
2022/02/17 03:08:11;;;;;;;4.83;0.77;;;8.00;99.90;;;;;;6243204;23;20020;-82
2022/02/17 03:10:37;;;;;;;2.40;0.60;;;8.20;99.90;;;;;;6242833;23;20024;-82
2022/02/17 03:13:04;;;;;;;2.73;0.60;;;8.20;99.90;;;;;;6242784;23;20034;-82
2022/02/17 03:15:30;;;;;;;0.93;0.43;;;8.20;99.90;;;;;;6242570;23;20451;-82
2022/02/17 03:17:56;;;;;;;4.40;0.70;;;8.30;99.90;;;;;;6243005;23;20024;-83
2022/02/17 03:20:22;;;;;;;3.88;0.52;;;8.30;99.90;;;;;;6237071;23;20066;-82
2022/02/17 03:22:48;;;;;;;7.40;1.50;;;8.40;99.90;;;;;;6242858;23;20032;-82
2022/02/17 03:25:15;;;;;;;3.33;0.70;;;8.30;99.90;;;;;;6242829;23;20035;-81
2022/02/17 03:27:42;;;;;;;4.28;1.00;;;8.30;99.90;;;;;;6243458;23;20504;-82
2022/02/17 03:30:11;;;;;;;2.78;1.00;;;8.30;99.90;;;;;;6242427;23;20024;-81
2022/02/17 03:32:38;;;;;;;1.40;1.15;;;8.50;99.90;;;;;;6242672;23;20036;-83
2022/02/17 03:35:05;;;;;;;0.82;0.45;;;8.50;99.90;;;;;;6242615;23;20459;-82
2022/02/17 03:37:32;;;;;;;4.63;1.03;;;8.50;99.90;;;;;;6242308;23;20517;-82
2022/02/17 03:39:59;;;;;;;2.80;0.87;;;8.40;99.90;;;;;;6244129;23;20020;-82
2022/02/17 03:42:25;;;;;;;1.48;1.15;;;8.40;99.90;;;;;;6217702;23;20393;-82
2022/02/17 03:44:51;;;;;;;3.95;1.08;;;8.40;99.90;;;;;;6244973;23;20024;-82
2022/02/17 03:47:17;;;;;;;6.33;1.00;;;8.40;99.90;;;;;;6245026;23;20044;-82
2022/02/17 03:49:43;;;;;;;3.13;0.77;;;8.50;99.90;;;;;;6245523;23;20439;-82
2022/02/17 03:52:09;;;;;;;0.77;0.77;;;8.60;99.90;;;;;;6246352;23;20027;-81
2022/02/17 03:54:35;;;;;;;5.82;0.77;;;8.60;99.90;;;;;;6246990;23;20325;-81
2022/02/17 03:57:01;;;;;;;5.63;0.80;;;8.70;99.90;;;;;;6249032;23;20027;-82
2022/02/17 03:59:27;;;;;;;4.82;1.05;;;8.70;99.90;;;;;;6247859;23;20055;-80
2022/02/17 04:01:53;;;;;;;5.40;0.60;;;8.80;99.90;;;;;;6245473;23;20339;-82
2022/02/17 04:04:20;;;;;;;3.28;0.55;;;8.70;99.90;;;;;;6245133;23;20026;-82
2022/02/17 04:06:46;;;;;;;4.80;1.70;;;8.60;99.90;;;;;;6245009;23;20020;-82
2022/02/17 04:09:12;;;;;;;1.25;0.55;;;8.70;99.90;;;;;;6244834;23;20024;-81
2022/02/17 04:11:38;;;;;;;1.75;0.52;;;8.80;99.90;;;;;;6244703;23;20032;-81
2022/02/17 04:14:05;;;;;;;2.40;1.58;;;8.90;99.90;;;;;;6245863;23;20020;-81
2022/02/17 04:16:31;;;;;;;1.05;0.77;;;8.90;99.90;;;;;;6245579;23;20016;-81
2022/02/17 04:18:57;;;;;;;3.20;0.65;;;8.90;99.90;;;;;;6244735;23;20016;-80
2022/02/17 04:21:24;;;;;;;4.00;0.80;;;8.90;99.90;;;;;;6219919;23;20114;-80
2022/02/17 04:23:51;;;;;;;2.75;0.70;;;8.90;99.90;;;;;;6247575;23;20031;-81
2022/02/17 04:26:19;;;;;;;5.47;1.20;;;8.90;99.90;;;;;;6247120;23;20020;-81
2022/02/17 04:28:46;;;;;;;2.08;0.55;;;9.00;99.90;;;;;;6245717;23;20074;-82
2022/02/17 04:31:13;;;;;;;2.90;0.73;;;9.00;99.90;;;;;;6219629;23;20072;-84
2022/02/17 04:33:40;;;;;;;2.42;0.93;;;9.00;99.90;;;;;;6247343;23;20082;-79
2022/02/17 04:36:07;;;;;;;2.45;0.80;;;9.00;99.90;;;;;;6246157;23;20374;-81
2022/02/17 04:38:34;;;;;;;3.58;0.65;;;9.10;99.90;;;;;;6246718;23;20024;-82
2022/02/17 04:43:45;;;;;;;2.88;0.73;;;9.10;99.90;;;;;;6244712;23;20030;-79
2022/02/17 04:46:11;;;;;;;3.30;1.60;;;9.00;99.90;;;;;;6249806;23;20035;-80
2022/02/17 04:48:37;;;;;;;4.25;0.60;;;8.80;99.90;;;;;;6249582;23;20434;-79
2022/02/17 04:51:04;;;;;;;3.22;0.77;;;8.60;99.90;;;;;;6249836;23;20024;-79
2022/02/17 04:53:30;;;;;;;0.27;0.20;;;8.40;99.90;;;;;;6250344;23;20028;-80
2022/02/17 04:55:57;;;;;;;1.05;0.50;;;8.20;99.90;;;;;;6249964;23;20032;-80
2022/02/17 04:58:23;;;;;;;4.07;0.87;;;8.10;99.90;;;;;;6249740;23;20082;-81
2022/02/17 05:00:49;;;;;;;1.70;0.70;;;8.00;99.90;;;;;;6246499;23;20102;-79
2022/02/17 05:03:15;;;;;;;1.10;0.77;;;7.90;99.90;;;;;;6244845;23;20035;-79
2022/02/17 05:05:41;;;;;;;0.33;0.33;;;7.70;99.90;;;;;;6244824;23;20027;-81
2022/02/17 05:08:07;;;;;;;1.70;0.57;;;7.60;99.90;;;;;;6244222;23;20103;-80
2022/02/17 05:10:34;;;;;;;0.27;0.27;;;7.50;99.90;;;;;;6243150;23;20028;-80
2022/02/17 05:13:01;;;;;;;1.33;0.50;;;7.40;99.90;;;;;;6243496;23;20081;-79
2022/02/17 05:15:27;;;;;;;3.27;0.40;;;7.40;99.90;;;;;;6243848;23;20719;-78
2022/02/17 05:17:53;;;;;;;0.87;0.30;;;7.40;99.90;;;;;;6244130;23;20024;-79
2022/02/17 05:20:19;;;;;;;0.20;0.20;;;7.40;99.90;;;;;;6243696;23;20383;-79
2022/02/17 05:22:45;;;;;;;1.43;0.23;;;7.40;99.90;;;;;;6243670;23;20359;-81
2022/02/17 05:25:13;;;;;;;0.47;0.37;;;7.40;99.90;;;;;;6245439;23;20028;-80
2022/02/17 05:27:40;;;;;;;1.33;0.70;;;7.40;99.90;;;;;;6244262;23;20083;-81
2022/02/17 05:30:08;;;;;;;4.03;0.93;;;7.40;99.90;;;;;;6243405;23;20028;-80
2022/02/17 05:32:38;;;;;;;1.50;0.60;;;7.40;99.90;;;;;;6243868;23;20024;-79
2022/02/17 05:35:05;;;;;;;5.30;0.87;;;7.50;99.90;;;;;;6245092;23;20491;-81
2022/02/17 05:37:31;;;;;;;0.67;0.67;;;7.50;99.90;;;;;;6248657;23;20028;-80
2022/02/17 05:39:57;;;;;;;1.93;0.47;;;7.50;99.90;;;;;;6249377;23;20024;-82
2022/02/17 05:42:23;;;;;;;0.60;0.60;;;7.40;99.90;;;;;;6245132;23;20039;-84
2022/02/17 05:44:49;;;;;;;1.40;0.20;;;7.30;99.90;;;;;;6244419;23;20459;-79
2022/02/17 05:47:16;;;;;;;1.83;0.50;;;7.30;99.90;;;;;;6243962;23;20148;-81
2022/02/17 05:49:42;;;;;;;1.23;0.50;;;7.30;99.90;;;;;;6246588;23;20439;-81
2022/02/17 05:52:08;;;;;;;2.10;0.60;;;7.20;99.90;;;;;;6244614;23;20031;-80
2022/02/17 05:54:34;;;;;;;3.37;1.10;;;7.10;99.90;;;;;;6244182;23;20028;-81
2022/02/17 05:57:00;;;;;;;2.33;0.33;;;7.10;99.90;;;;;;6243718;23;20020;-82
2022/02/17 05:59:26;;;;;;;1.00;0.47;;;7.10;99.90;;;;;;6244281;23;20474;-80
2022/02/17 06:01:52;;;;;;;2.97;1.20;;;7.20;99.90;;;;;;6246054;23;20040;-80
2022/02/17 06:04:19;;;;;;;4.80;0.90;;;7.20;99.90;;;;;;6246208;23;21566;-81
2022/02/17 06:06:44;;;;;;;2.03;1.90;;;7.40;99.90;;;;;;6243651;23;20016;-82
2022/02/17 06:09:10;;;;;;;2.83;0.40;;;7.30;99.90;;;;;;6242793;23;20086;-81
2022/02/17 06:11:36;;;;;;;2.70;1.27;;;7.30;99.90;;;;;;6243183;23;20051;-81
2022/02/17 06:14:02;;;;;;;2.80;1.10;;;7.40;99.90;;;;;;6242126;23;20066;-82
2022/02/17 06:16:29;;;;;;;2.67;1.03;;;7.30;99.90;;;;;;6242606;23;20020;-81
2022/02/17 06:18:55;;;;;;;1.73;0.60;;;7.40;99.90;;;;;;6243017;23;20028;-81
2022/02/17 06:21:21;;;;;;;4.30;0.70;;;7.60;99.90;;;;;;6242082;23;20094;-81
2022/02/17 06:23:47;;;;;;;2.17;0.70;;;7.60;99.90;;;;;;6242361;23;20024;-81
2022/02/17 06:26:13;;;;;;;5.63;1.17;;;7.60;99.90;;;;;;6242353;23;20027;-80
2022/02/17 06:28:39;;;;;;;3.97;1.30;;;7.60;99.90;;;;;;6242600;23;20099;-81
2022/02/17 06:31:05;;;;;;;3.27;1.10;;;7.90;99.90;;;;;;6242339;23;20051;-82
2022/02/17 06:33:31;;;;;;;4.67;1.20;;;7.90;99.90;;;;;;6242789;23;20120;-81
2022/02/17 06:35:57;;;;;;;7.87;1.17;;;7.90;99.90;;;;;;6242608;23;20047;-81
2022/02/17 06:38:26;;;;;;;4.17;0.70;;;7.90;99.90;;;;;;6242746;23;20024;-81
2022/02/17 06:40:52;;;;;;;3.15;0.95;;;8.10;99.90;;;;;;6215950;23;20062;-82
2022/02/17 06:43:19;;;;;;;2.28;0.77;;;8.40;99.90;;;;;;6242762;23;20020;-81
2022/02/17 06:45:46;;;;;;;3.67;2.00;;;8.40;99.90;;;;;;6242181;23;20447;-82
2022/02/17 06:48:12;;;;;;;4.50;1.33;;;8.40;99.90;;;;;;6242364;23;20016;-81
2022/02/17 06:50:38;;;;;;;6.50;1.93;;;8.40;99.90;;;;;;6242109;23;20085;-81
2022/02/17 06:53:06;;;;;;;5.77;0.93;;;8.40;99.90;;;;;;6241893;23;20020;-81
2022/02/17 06:55:34;;;;;;;1.70;0.88;;;8.40;99.90;;;;;;6242315;23;20020;-80
2022/02/17 06:58:00;;;;;;;2.72;0.93;;;8.50;99.90;;;;;;6242892;23;20044;-81
2022/02/17 07:00:26;;;;;;;4.90;1.27;;;8.80;99.90;;;;;;6242296;23;20482;-82
2022/02/17 07:02:54;;;;;;;2.58;1.48;;;9.00;99.90;;;;;;6242669;23;20080;-84
2022/02/17 07:05:21;;;;;;;3.08;0.73;;;9.00;99.90;;;;;;6242398;23;20020;-80
2022/02/17 07:07:48;;;;;;;5.15;0.80;;;9.10;99.90;;;;;;6242579;23;20028;-82
2022/02/17 07:10:14;;;;;;;8.48;2.97;;;9.20;99.90;;;;;;6242540;23;20059;-82
2022/02/17 07:12:43;;;;;;;5.45;1.25;;;9.30;99.90;;;;;;6243117;23;20906;-81
2022/02/17 07:15:09;;;;;;;4.07;0.85;;;9.40;99.90;;;;;;6243599;23;20035;-84
2022/02/17 07:17:36;;;;;;;3.58;1.40;;;9.50;99.90;;;;;;6244204;23;20024;-86
2022/02/17 07:20:02;;;;;;;3.95;0.95;;;9.70;99.90;;;;;;6244055;23;20016;-81
2022/02/17 07:22:28;;;;;;;3.60;0.82;;;9.80;99.90;;;;;;6243661;23;20030;-81
2022/02/17 07:24:54;;;;;;;3.55;1.45;;;10.00;99.90;;;;;;6243523;23;20017;-81
2022/02/17 07:27:20;;;;;;;5.93;0.98;;;10.20;99.90;;;;;;6243842;23;20024;-81
2022/02/17 07:29:46;;;;;;;7.82;1.33;;;10.20;99.90;;;;;;6243422;23;20570;-81
2022/02/17 07:32:12;;;;;;;2.22;1.20;;;10.00;99.40;;;;;;6243816;23;20039;-81
2022/02/17 07:34:38;;;;;;;6.43;1.00;;;10.10;99.70;;;;;;6243622;23;20028;-81
2022/02/17 07:37:05;;;;;;;4.35;0.82;;;9.80;99.40;;;;;;6243780;23;20020;-81
2022/02/17 07:39:31;;;;;;;5.47;1.02;;;10.00;99.60;;;;;;6244853;23;20024;-83
2022/02/17 07:41:57;;;;;;;2.53;1.40;;;10.40;98.00;;;;;;6243572;23;20031;-81
2022/02/17 07:44:25;;;;;;;3.67;0.98;;;10.40;96.80;;;;;;6244007;23;20489;-81
2022/02/17 07:46:52;;;;;;;1.70;1.10;;;10.50;95.30;;;;;;6240343;23;20020;-81
2022/02/17 07:49:18;;;;;;;4.25;1.38;;;10.80;94.70;;;;;;6243687;23;20470;-84
2022/02/17 07:51:44;;;;;;;3.45;0.85;;;10.60;94.70;;;;;;6242922;23;20712;-82
2022/02/17 07:54:10;;;;;;;3.22;1.17;;;10.30;95.70;;;;;;6243520;23;20031;-80
2022/02/17 07:56:36;;;;;;;7.93;2.85;;;10.00;95.60;;;;;;6243256;23;20070;-80
2022/02/17 07:59:02;;;;;;;6.00;1.23;;;10.00;95.90;;;;;;6243356;23;20020;-81
2022/02/17 08:01:28;;;;;;;3.78;0.70;;;10.00;94.80;;;;;;6243094;23;20024;-82
2022/02/17 08:03:55;;;;;;;5.50;1.42;;;10.00;94.70;;;;;;6243363;23;20051;-82
2022/02/17 08:06:21;;;;;;;4.07;1.13;;;9.90;93.40;;;;;;6243460;23;20024;-80
2022/02/17 08:08:49;;;;;;;8.15;1.92;;;10.10;93.70;;;;;;6243274;23;20032;-81
2022/02/17 08:11:16;;;;;;;5.93;1.17;;;10.30;93.00;;;;;;6243206;23;20090;-83
2022/02/17 08:13:43;;;;;;;1.10;0.70;;;10.20;93.20;;;;;;6243649;23;20024;-81
2022/02/17 08:16:09;;;;;;;3.65;0.55;;;10.10;93.70;;;;;;6243540;23;20043;-83
2022/02/17 08:18:35;;;;;;;6.10;1.35;;;10.00;92.50;;;;;;6216656;23;20031;-81
2022/02/17 08:21:01;;;;;;;8.98;1.20;;;9.90;92.50;;;;;;6243113;23;20028;-81
2022/02/17 08:23:30;;;;;;;3.22;0.98;;;9.90;92.80;;;;;;6243379;23;20031;-80
2022/02/17 08:25:58;;;;;;;2.03;0.90;;;9.90;93.60;;;;;;6243161;23;20020;-81
2022/02/17 08:28:24;;;;;;;3.85;1.02;;;9.80;92.90;;;;;;6243752;23;20093;-81
2022/02/17 08:30:50;;;;;;;1.83;0.43;;;9.90;93.30;;;;;;6243224;23;20455;-80
2022/02/17 08:33:16;;;;;;;5.20;0.80;;;9.90;93.10;;;;;;6243287;23;20051;-81
2022/02/17 08:35:42;;;;;;;2.45;0.63;;;9.90;94.00;;;;;;6243078;23;20078;-81
2022/02/17 08:38:08;;;;;;;3.25;0.77;;;9.90;93.50;;;;;;6243298;23;20024;-80
2022/02/17 08:40:34;;;;;;;0.95;0.50;;;9.90;92.90;;;;;;6244971;23;20332;-79
2022/02/17 08:43:08;;;;;;;1.10;0.52;;;9.90;92.80;;;;;;6247930;23;20024;-81
2022/02/17 08:45:35;;;;;;;1.70;0.68;;;9.90;92.70;;;;;;6248429;23;20032;-79
2022/02/17 08:48:02;;;;;;;3.03;1.35;;;9.90;92.50;;;;;;6247171;23;20022;-79
2022/02/17 08:50:27;;;;;;;0.47;0.45;;;9.90;93.60;;;;;;6246537;23;20044;-79
2022/02/17 08:52:53;;;;;;;5.70;1.27;;;9.90;93.60;;;;;;6241154;23;20066;-81
2022/02/17 08:55:20;;;;;;;6.97;1.10;;;9.90;93.50;;;;;;6243923;23;20090;-81
2022/02/17 08:57:47;;;;;;;1.95;1.02;;;10.00;92.90;;;;;;6243327;23;20016;-81
2022/02/17 09:00:14;;;;;;;6.32;1.25;;;10.00;93.20;;;;;;6243773;23;20031;-80
2022/02/17 09:02:41;;;;;;;2.10;1.40;;;10.10;93.20;;;;;;6243369;23;20315;-82
2022/02/17 09:05:08;;;;;;;0.88;0.70;;;10.10;93.70;;;;;;6243633;23;20020;-82
2022/02/17 09:07:34;;;;;;;1.08;0.93;;;10.10;93.00;;;;;;6243127;23;20066;-81
2022/02/17 09:10:00;;;;;;;1.30;0.38;;;10.10;93.50;;;;;;6245605;23;20023;-82
2022/02/17 09:12:30;;;;;;;4.50;0.63;;;10.10;94.40;;;;;;6246035;23;20024;-81
2022/02/17 09:14:56;;;;;;;7.13;1.23;;;10.10;93.60;;;;;;6243709;23;20035;-81
2022/02/17 09:17:22;;;;;;;4.22;1.65;;;10.10;94.30;;;;;;6242969;23;20922;-81
2022/02/17 09:19:48;;;;;;;4.22;0.63;;;10.10;93.20;;;;;;6244348;23;20020;-82
2022/02/17 09:22:14;;;;;;;0.80;0.50;;;10.10;94.20;;;;;;6245156;23;20107;-80
2022/02/17 09:24:40;;;;;;;3.30;1.42;;;10.10;94.10;;;;;;6243496;23;20028;-81
2022/02/17 09:27:06;;;;;;;2.00;0.98;;;10.10;94.30;;;;;;6244643;23;20023;-81
2022/02/17 09:29:33;;;;;;;2.00;0.70;;;10.10;93.90;;;;;;6244933;23;20032;-81
2022/02/17 09:31:59;;;;;;;3.13;0.82;;;10.00;94.30;;;;;;6243355;23;20020;-81
2022/02/17 09:34:26;;;;;;;3.17;1.15;;;9.90;95.10;;;;;;6243732;23;20048;-79
2022/02/17 09:36:52;;;;;;;3.88;0.60;;;9.90;95.80;;;;;;6242147;23;20024;-81
2022/02/17 09:39:18;;;;;;;1.80;0.65;;;9.90;96.30;;;;;;6242988;23;20455;-82
2022/02/17 09:41:46;;;;;;;2.88;1.02;;;9.90;96.60;;;;;;6242696;23;20477;-80
2022/02/17 09:44:12;;;;;;;2.10;0.82;;;9.90;96.30;;;;;;6242691;23;20028;-80
2022/02/17 09:46:41;;;;;;;0.50;0.50;;;9.80;96.00;;;;;;6242148;23;20043;-80
2022/02/17 09:49:08;;;;;;;1.77;1.48;;;9.70;96.20;;;;;;6242536;23;20451;-81
2022/02/17 09:51:35;;;;;;;3.15;0.93;;;9.70;96.80;;;;;;6242605;23;20024;-81
2022/02/17 09:54:02;;;;;;;2.33;1.15;;;9.70;96.80;;;;;;6242942;23;20027;-82
2022/02/17 09:56:29;;;;;;;1.48;1.23;;;9.70;96.80;;;;;;6242032;23;20028;-82
2022/02/17 09:58:56;;;;;;;1.52;0.50;;;9.70;97.60;;;;;;6242312;23;20914;-81
2022/02/17 10:01:26;;;;;;;0.98;0.50;;;9.70;97.30;;;;;;6242596;23;20458;-81
2022/02/17 10:04:10;;;;;;;2.05;0.70;;;9.80;98.10;;;;;;6241179;23;20031;-80
2022/02/17 10:06:40;;;;;;;1.48;1.00;;;9.50;99.50;;;;;;6242871;23;20028;-81
2022/02/17 10:09:07;;;;;;;1.40;0.52;;;9.50;99.90;;;;;;6243271;23;20020;-82
2022/02/17 10:11:33;;;;;;;0.60;0.40;;;9.50;99.90;;;;;;6242620;23;20104;-82
2022/02/17 10:14:00;;;;;;;3.63;0.75;;;9.40;99.90;;;;;;6242340;23;20342;-82
2022/02/17 10:16:26;;;;;;;2.22;0.65;;;9.40;99.90;;;;;;6242400;23;20024;-81
2022/02/17 10:18:52;;;;;;;5.15;0.50;;;9.40;99.90;;;;;;6242382;23;20387;-82
2022/02/17 10:21:19;;;;;;;4.78;0.70;;;9.50;99.90;;;;;;6238900;23;20024;-81
2022/02/17 10:23:46;;;;;;;2.65;0.68;;;9.50;99.90;;;;;;6242228;23;20162;-81
2022/02/17 10:26:16;;;;;;;0.75;0.32;;;9.50;99.90;;;;;;6242039;23;20028;-81
2022/02/17 10:28:44;;;;;;;5.68;1.00;;;9.40;99.90;;;;;;6242180;23;20107;-81
2022/02/17 10:31:22;;;;;;;1.30;0.73;;;9.40;99.90;;;;;;6241828;23;20091;-81
2022/02/17 10:33:52;;;;;;;0.60;0.45;;;9.40;99.90;;;;;;6241687;23;20455;-81
2022/02/17 10:36:33;;;;;;;1.58;1.15;;;9.30;99.90;;;;;;6242147;23;20020;-80
2022/02/17 10:39:08;;;;;;;2.30;0.95;;;9.20;99.90;;;;;;6243146;23;20032;-79
2022/02/17 10:41:44;;;;;;;4.47;0.57;;;9.20;99.90;;;;;;6243104;23;20031;-80
2022/02/17 10:44:10;;;;;;;2.63;0.70;;;9.20;99.90;;;;;;6242943;23;20485;-80
2022/02/17 10:46:36;;;;;;;3.72;1.23;;;9.20;99.90;;;;;;6244006;23;20024;-82
2022/02/17 10:49:09;;;;;;;5.78;0.38;;;9.20;99.90;;;;;;6243699;23;20047;-81
2022/02/17 10:51:36;;;;;;;1.17;0.52;;;9.30;99.90;;;;;;6245052;23;20028;-81
2022/02/17 10:54:02;;;;;;;1.30;0.68;;;9.20;99.90;;;;;;6242914;23;20032;-80
2022/02/17 10:56:31;;;;;;;0.88;0.63;;;9.30;99.90;;;;;;6245872;23;20020;-80
2022/02/17 10:59:00;;;;;;;1.15;0.57;;;9.30;99.90;;;;;;6247360;23;20028;-80
2022/02/17 11:01:26;;;;;;;0.93;0.50;;;9.50;99.90;;;;;;6245454;23;20024;-81
2022/02/17 11:03:54;;;;;;;5.07;2.30;;;9.50;99.90;;;;;;6243376;23;20082;-82
2022/02/17 11:06:21;;;;;;;5.13;1.08;;;9.50;99.90;;;;;;6242670;23;20405;-80
2022/02/17 11:08:49;;;;;;;2.78;0.68;;;9.50;99.90;;;;;;6243524;23;20059;-81
2022/02/17 11:11:15;;;;;;;1.80;0.50;;;9.40;99.90;;;;;;6247128;23;20078;-79
2022/02/17 11:13:44;;;;;;;3.20;0.40;;;9.30;99.90;;;;;;6252198;23;20024;-80
2022/02/17 11:16:10;;;;;;;3.20;0.88;;;9.40;99.90;;;;;;6249753;23;20024;-80
2022/02/17 11:18:37;;;;;;;4.07;0.82;;;9.40;99.90;;;;;;6254810;23;20030;-82
2022/02/17 11:21:03;;;;;;;1.73;0.55;;;9.80;99.90;;;;;;6254381;23;20031;-79
2022/02/17 11:23:31;;;;;;;0.68;0.40;;;9.80;99.90;;;;;;6245961;23;20024;-80
2022/02/17 11:25:58;;;;;;;2.53;0.28;;;10.50;99.90;;;;;;6242262;23;20020;-81
2022/02/17 11:28:33;;;;;;;1.45;0.40;;;10.50;99.90;;;;;;6235775;23;20388;-79
2022/02/17 11:31:00;;;;;;;1.25;0.90;;;10.40;99.90;;;;;;6241956;23;20085;-80
2022/02/17 11:33:28;;;;;;;0.50;0.50;;;10.20;99.90;;;;;;6242032;23;20028;-81
2022/02/17 11:35:59;;;;;;;2.95;1.25;;;10.10;99.90;;;;;;6242740;23;20108;-81
2022/02/17 11:38:34;;;;;;;6.57;0.52;;;10.00;99.90;;;;;;6258337;23;20020;-82
2022/02/17 11:41:06;;;;;;;3.10;0.40;;;9.80;99.90;;;;;;6259120;23;20030;-80
2022/02/17 11:43:34;;;;;;;4.70;0.77;;;9.70;99.90;;;;;;6259376;23;20027;-81
2022/02/17 11:46:00;;;;;;;8.88;1.25;;;9.50;99.90;;;;;;6259605;23;20031;-80
2022/02/17 11:48:35;;;;;;;3.05;0.80;;;9.30;99.90;;;;;;6251015;23;20016;-79
2022/02/17 11:51:16;;;;;;;1.48;0.40;;;9.20;99.90;;;;;;6252385;23;20023;-79
2022/02/17 11:53:43;;;;;;;1.27;0.70;;;9.00;99.90;;;;;;6254891;23;20020;-80
2022/02/17 11:56:35;;;;;;;3.50;1.40;;;8.90;99.90;;;;;;6241831;23;20255;-79
2022/02/17 11:59:21;;;;;;;4.20;0.60;;;9.00;99.90;;;;;;6242313;23;20054;-80
2022/02/17 12:01:48;;;;;;;0.30;0.30;;;9.00;99.90;;;;;;6243725;23;20028;-79
2022/02/17 12:04:17;;;;;;;2.53;0.98;;;9.20;99.90;;;;;;6243877;23;20024;-80
2022/02/17 12:06:45;;;;;;;0.47;0.40;;;9.30;99.90;;;;;;6243083;23;20024;-81
2022/02/17 12:09:35;;;;;;;2.83;0.28;;;9.40;99.90;;;;;;6243409;23;20074;-81
2022/02/17 12:12:22;;;;;;;1.17;0.60;;;9.40;99.90;;;;;;6253761;23;20093;-81
2022/02/17 12:14:49;;;;;;;3.05;0.70;;;9.20;99.90;;;;;;6246333;23;20034;-82
2022/02/17 12:17:15;;;;;;;1.50;0.45;;;9.20;99.90;;;;;;6243976;23;20027;-80
2022/02/17 12:19:42;;;;;;;3.80;0.60;;;9.10;99.90;;;;;;6244258;23;20055;-81
2022/02/17 12:22:10;;;;;;;2.65;0.63;;;9.10;99.90;;;;;;6252499;23;20078;-80
2022/02/17 12:24:38;;;;;;;6.45;0.47;;;9.10;99.90;;;;;;6243312;23;20024;-80
2022/02/17 12:27:05;;;;;;;3.35;0.40;;;9.10;99.90;;;;;;6241263;23;20047;-80
2022/02/17 12:29:33;;;;;;;0.57;0.40;;;9.10;99.90;;;;;;6254245;23;20016;-81
2022/02/17 12:32:01;;;;;;;0.80;0.25;;;9.10;99.90;;;;;;6236652;23;20162;-79
2022/02/17 12:34:28;;;;;;;2.03;0.30;;;9.20;99.90;;;;;;6243107;23;20024;-80
2022/02/17 12:36:55;;;;;;;1.98;0.63;;;9.10;99.90;;;;;;6242326;23;20093;-80
2022/02/17 12:39:25;;;;;;;2.42;0.35;;;9.30;99.90;;;;;;6243331;23;20059;-81
2022/02/17 12:42:02;;;;;;;1.27;0.30;;;9.40;99.90;;;;;;6243143;23;20016;-81
2022/02/17 12:44:30;;;;;;;1.90;0.30;;;9.30;99.90;;;;;;6243038;23;20536;-80
2022/02/17 12:46:57;;;;;;;0.73;0.57;;;9.20;99.90;;;;;;6242989;23;20028;-81
2022/02/17 12:49:24;;;;;;;2.70;0.40;;;9.10;99.90;;;;;;6244057;23;20125;-80
2022/02/17 12:51:49;;;;;;;1.27;0.30;;;9.00;99.90;;;;;;6244354;23;20447;-80
2022/02/17 12:54:16;;;;;;;0.75;0.65;;;8.70;99.90;;;;;;6244845;23;20031;-79
2022/02/17 12:56:44;;;;;;;4.55;0.43;;;8.50;99.90;;;;;;6265336;23;20039;-78
2022/02/17 12:59:12;;;;;;;0.53;0.53;;;8.30;99.90;;;;;;6258256;23;20020;-79
2022/02/17 13:01:39;;;;;;;1.53;0.30;;;8.10;99.90;;;;;;6250694;23;20024;-78
2022/02/17 13:04:06;;;;;;;0.98;0.70;;;8.00;99.90;;;;;;6252401;23;20024;-79